createdAt,value
2017-07-20T00:00:44.254Z,1013.56
2017-07-20T00:01:46.131Z,1013.60
2017-07-20T00:02:48.034Z,1013.62
2017-07-20T00:03:49.909Z,1013.59
2017-07-20T00:04:51.727Z,1013.59
2017-07-20T00:05:53.570Z,1013.69
2017-07-20T00:06:55.470Z,1013.70
2017-07-20T00:07:57.349Z,1013.70
2017-07-20T00:08:59.223Z,1013.73
2017-07-20T00:10:13.379Z,1013.76
2017-07-20T00:11:15.289Z,1013.78
2017-07-20T00:12:17.198Z,1013.82
2017-07-20T00:13:19.069Z,1013.86
2017-07-20T00:14:20.882Z,1013.86
2017-07-20T00:15:22.696Z,1013.90
2017-07-20T00:16:24.572Z,1013.96
2017-07-20T00:17:26.455Z,1013.94
2017-07-20T00:18:28.363Z,1014.00
2017-07-20T00:19:42.547Z,1014.02
2017-07-20T00:20:44.453Z,1013.95
2017-07-20T00:21:46.329Z,1014.05
2017-07-20T00:22:48.204Z,1013.99
2017-07-20T00:23:50.052Z,1014.01
2017-07-20T00:24:51.867Z,1014.10
2017-07-20T00:25:53.770Z,1014.03
2017-07-20T00:26:55.648Z,1014.02
2017-07-20T00:27:57.527Z,1014.09
2017-07-20T00:29:11.729Z,1014.17
2017-07-20T00:30:13.607Z,1014.13
2017-07-20T00:31:15.483Z,1014.11
2017-07-20T00:32:17.363Z,1014.09
2017-07-20T00:33:19.207Z,1014.09
2017-07-20T00:34:21.021Z,1014.03
2017-07-20T00:35:22.929Z,1013.95
2017-07-20T00:36:24.835Z,1014.00
2017-07-20T00:37:26.738Z,1014.00
2017-07-20T00:38:40.888Z,1013.93
2017-07-20T00:39:42.761Z,1013.90
2017-07-20T00:40:44.643Z,1013.95
2017-07-20T00:41:46.546Z,1013.90
2017-07-20T00:42:48.401Z,1013.87
2017-07-20T00:43:50.243Z,1013.91
2017-07-20T00:44:52.119Z,1013.91
2017-07-20T00:45:53.998Z,1013.92
2017-07-20T00:46:55.913Z,1013.93
2017-07-20T00:48:10.050Z,1013.99
2017-07-20T00:49:11.926Z,1013.86
2017-07-20T00:50:13.808Z,1013.92
2017-07-20T00:51:15.712Z,1013.97
2017-07-20T00:52:17.525Z,1013.92
2017-07-20T00:53:19.339Z,1013.81
2017-07-20T00:54:21.216Z,1013.92
2017-07-20T00:55:23.088Z,1013.85
2017-07-20T00:56:24.960Z,1013.85
2017-07-20T00:57:39.112Z,1013.77
2017-07-20T00:58:40.990Z,1013.80
2017-07-20T00:59:42.868Z,1013.85
2017-07-20T01:00:44.772Z,1013.91
2017-07-20T01:01:46.590Z,1013.92
2017-07-20T01:02:48.430Z,1013.90
2017-07-20T01:03:50.308Z,1013.95
2017-07-20T01:04:52.214Z,1013.94
2017-07-20T01:05:54.121Z,1013.91
2017-07-20T01:07:08.300Z,1013.98
2017-07-20T01:08:10.178Z,1013.94
2017-07-20T01:09:12.082Z,1013.93
2017-07-20T01:10:13.957Z,1013.93
2017-07-20T01:11:15.795Z,1013.92
2017-07-20T01:12:17.611Z,1013.92
2017-07-20T01:13:19.519Z,1013.89
2017-07-20T01:14:21.420Z,1013.95
2017-07-20T01:15:23.303Z,1013.91
2017-07-20T01:16:37.523Z,1013.91
2017-07-20T01:17:39.395Z,1013.97
2017-07-20T01:18:41.270Z,1013.98
2017-07-20T01:19:43.145Z,1013.96
2017-07-20T01:20:44.981Z,1014.00
2017-07-20T01:21:46.798Z,1014.01
2017-07-20T01:22:48.704Z,1013.94
2017-07-20T01:23:50.604Z,1013.99
2017-07-20T01:24:52.506Z,1013.96
2017-07-20T01:26:06.658Z,1013.95
2017-07-20T01:27:08.565Z,1013.98
2017-07-20T01:28:10.471Z,1014.01
2017-07-20T01:29:12.374Z,1013.98
2017-07-20T01:30:14.188Z,1013.97
2017-07-20T01:31:16.031Z,1013.96
2017-07-20T01:32:17.937Z,1013.98
2017-07-20T01:33:19.806Z,1014.00
2017-07-20T01:34:21.684Z,1013.98
2017-07-20T01:35:35.831Z,1013.94
2017-07-20T01:36:37.704Z,1013.97
2017-07-20T01:37:39.575Z,1013.94
2017-07-20T01:38:41.451Z,1013.98
2017-07-20T01:39:43.291Z,1013.93
2017-07-20T01:40:45.132Z,1013.94
2017-07-20T01:41:47.007Z,1013.99
2017-07-20T01:42:48.908Z,1013.89
2017-07-20T01:43:50.782Z,1013.90
2017-07-20T01:45:04.933Z,1013.91
2017-07-20T01:46:06.802Z,1013.97
2017-07-20T01:47:08.678Z,1013.97
2017-07-20T01:48:10.577Z,1013.92
2017-07-20T01:49:12.383Z,1013.92
2017-07-20T01:50:14.201Z,1013.89
2017-07-20T01:51:16.103Z,1013.89
2017-07-20T01:52:17.977Z,1013.86
2017-07-20T01:53:19.852Z,1013.84
2017-07-20T01:54:34.031Z,1013.84
2017-07-20T01:55:35.905Z,1013.77
2017-07-20T01:56:37.775Z,1013.80
2017-07-20T01:57:39.643Z,1013.80
2017-07-20T01:58:41.460Z,1013.79
2017-07-20T01:59:43.268Z,1013.80
2017-07-20T02:00:45.144Z,1013.78
2017-07-20T02:01:47.015Z,1013.77
2017-07-20T02:02:48.893Z,1013.77
2017-07-20T02:04:03.068Z,1013.79
2017-07-20T02:05:04.938Z,1013.79
2017-07-20T02:06:06.814Z,1013.76
2017-07-20T02:07:08.719Z,1013.75
2017-07-20T02:08:10.560Z,1013.74
2017-07-20T02:09:12.371Z,1013.72
2017-07-20T02:10:14.247Z,1013.70
2017-07-20T02:11:16.120Z,1013.76
2017-07-20T02:12:18.020Z,1013.70
2017-07-20T02:13:32.168Z,1013.72
2017-07-20T02:14:34.041Z,1013.74
2017-07-20T02:15:35.915Z,1013.72
2017-07-20T02:16:37.786Z,1013.72
2017-07-20T02:17:39.593Z,1013.71
2017-07-20T02:18:41.403Z,1013.73
2017-07-20T02:19:43.284Z,1013.75
2017-07-20T02:20:45.149Z,1013.76
2017-07-20T02:21:47.022Z,1013.80
2017-07-20T02:23:01.171Z,1013.77
2017-07-20T02:24:03.042Z,1013.78
2017-07-20T02:25:04.916Z,1013.81
2017-07-20T02:26:06.818Z,1013.75
2017-07-20T02:27:08.658Z,1013.71
2017-07-20T02:28:10.475Z,1013.73
2017-07-20T02:29:12.384Z,1013.74
2017-07-20T02:30:14.277Z,1013.75
2017-07-20T02:31:16.183Z,1013.78
2017-07-20T02:32:30.363Z,1013.73
2017-07-20T02:33:32.267Z,1013.69
2017-07-20T02:34:34.142Z,1013.73
2017-07-20T02:35:36.040Z,1013.73
2017-07-20T02:36:37.856Z,1013.75
2017-07-20T02:37:39.670Z,1013.75
2017-07-20T02:38:41.546Z,1013.77
2017-07-20T02:39:43.410Z,1013.73
2017-07-20T02:40:45.268Z,1013.72
2017-07-20T02:41:59.415Z,1013.74
2017-07-20T02:43:01.279Z,1013.71
2017-07-20T02:44:03.151Z,1013.71
2017-07-20T02:45:05.036Z,1013.73
2017-07-20T02:46:06.849Z,1013.75
2017-07-20T02:47:08.650Z,1013.78
2017-07-20T02:48:10.521Z,1013.77
2017-07-20T02:49:12.413Z,1013.74
2017-07-20T02:50:14.314Z,1013.81
2017-07-20T02:51:28.479Z,1013.87
2017-07-20T02:52:30.344Z,1013.89
2017-07-20T02:53:32.220Z,1013.91
2017-07-20T02:54:34.079Z,1013.91
2017-07-20T02:55:35.892Z,1013.90
2017-07-20T02:56:37.717Z,1013.92
2017-07-20T02:57:39.606Z,1013.86
2017-07-20T02:58:41.477Z,1013.84
2017-07-20T02:59:43.371Z,1013.87
2017-07-20T03:00:57.516Z,1013.85
2017-07-20T03:01:59.404Z,1013.81
2017-07-20T03:03:01.279Z,1013.76
2017-07-20T03:04:03.164Z,1013.80
2017-07-20T03:05:04.972Z,1013.82
2017-07-20T03:06:06.785Z,1013.86
2017-07-20T03:07:08.681Z,1013.83
2017-07-20T03:08:10.569Z,1013.79
2017-07-20T03:09:12.443Z,1013.84
2017-07-20T03:10:26.610Z,1013.85
2017-07-20T03:11:28.474Z,1013.87
2017-07-20T03:12:30.346Z,1013.92
2017-07-20T03:13:32.212Z,1013.98
2017-07-20T03:14:34.062Z,1013.98
2017-07-20T03:15:35.858Z,1014.06
2017-07-20T03:16:37.725Z,1014.09
2017-07-20T03:17:39.616Z,1014.04
2017-07-20T03:18:41.467Z,1014.04
2017-07-20T03:19:55.612Z,1014.02
2017-07-20T03:20:57.485Z,1014.01
2017-07-20T03:21:59.357Z,1013.95
2017-07-20T03:23:01.246Z,1013.95
2017-07-20T03:24:03.054Z,1013.91
2017-07-20T03:25:04.867Z,1013.92
2017-07-20T03:26:06.762Z,1013.95
2017-07-20T03:27:08.632Z,1013.97
2017-07-20T03:28:10.515Z,1013.97
2017-07-20T03:29:24.691Z,1014.01
2017-07-20T03:30:26.572Z,1013.97
2017-07-20T03:31:28.445Z,1013.97
2017-07-20T03:32:30.312Z,1013.96
2017-07-20T03:33:32.124Z,1013.92
2017-07-20T03:34:33.959Z,1013.90
2017-07-20T03:35:35.851Z,1013.88
2017-07-20T03:36:37.720Z,1013.87
2017-07-20T03:37:39.618Z,1013.87
2017-07-20T03:38:53.788Z,1013.84
2017-07-20T03:39:55.659Z,1013.77
2017-07-20T03:40:57.554Z,1013.77
2017-07-20T03:41:59.448Z,1013.77
2017-07-20T03:43:01.255Z,1013.79
2017-07-20T03:44:03.060Z,1013.78
2017-07-20T03:45:04.937Z,1013.73
2017-07-20T03:46:06.832Z,1013.73
2017-07-20T03:47:08.726Z,1013.73
2017-07-20T03:48:22.874Z,1013.71
2017-07-20T03:49:24.747Z,1013.66
2017-07-20T03:50:26.615Z,1013.70
2017-07-20T03:51:28.486Z,1013.73
2017-07-20T03:52:30.300Z,1013.69
2017-07-20T03:53:32.133Z,1013.66
2017-07-20T03:54:34.024Z,1013.67
2017-07-20T03:55:35.898Z,1013.65
2017-07-20T03:56:37.776Z,1013.61
2017-07-20T03:57:51.924Z,1013.59
2017-07-20T03:58:53.789Z,1013.58
2017-07-20T03:59:55.659Z,1013.61
2017-07-20T04:00:57.533Z,1013.59
2017-07-20T04:01:59.365Z,1013.58
2017-07-20T04:03:01.197Z,1013.57
2017-07-20T04:04:03.071Z,1013.49
2017-07-20T04:05:04.970Z,1013.48
2017-07-20T04:06:06.866Z,1013.51
2017-07-20T04:07:21.010Z,1013.47
2017-07-20T04:08:22.876Z,1013.47
2017-07-20T04:09:24.752Z,1013.41
2017-07-20T04:10:26.623Z,1013.45
2017-07-20T04:11:28.459Z,1013.43
2017-07-20T04:12:30.287Z,1013.40
2017-07-20T04:13:32.167Z,1013.37
2017-07-20T04:14:34.060Z,1013.30
2017-07-20T04:15:35.935Z,1013.30
2017-07-20T04:16:50.102Z,1013.27
2017-07-20T04:17:51.972Z,1013.24
2017-07-20T04:18:53.850Z,1013.22
2017-07-20T04:19:55.743Z,1013.21
2017-07-20T04:20:57.561Z,1013.21
2017-07-20T04:21:59.396Z,1013.12
2017-07-20T04:23:01.297Z,1013.11
2017-07-20T04:24:03.194Z,1013.07
2017-07-20T04:25:05.093Z,1013.01
2017-07-20T04:26:19.260Z,1012.89
2017-07-20T04:27:21.130Z,1012.84
2017-07-20T04:28:23.003Z,1012.72
2017-07-20T04:29:24.896Z,1012.68
2017-07-20T04:30:26.713Z,1012.60
2017-07-20T04:31:28.522Z,1012.58
2017-07-20T04:32:30.397Z,1012.55
2017-07-20T04:33:32.294Z,1012.52
2017-07-20T04:34:34.169Z,1012.54
2017-07-20T04:35:48.342Z,1012.51
2017-07-20T04:36:50.216Z,1012.49
2017-07-20T04:37:52.089Z,1012.55
2017-07-20T04:38:53.961Z,1012.58
2017-07-20T04:39:55.772Z,1012.59
2017-07-20T04:40:57.584Z,1012.60
2017-07-20T04:41:59.479Z,1012.57
2017-07-20T04:43:01.350Z,1012.59
2017-07-20T04:44:03.225Z,1012.63
2017-07-20T04:45:17.370Z,1012.66
2017-07-20T04:46:19.246Z,1012.71
2017-07-20T04:47:21.117Z,1012.79
2017-07-20T04:48:22.986Z,1012.78
2017-07-20T04:49:24.798Z,1012.76
2017-07-20T04:50:26.608Z,1012.79
2017-07-20T04:51:28.485Z,1012.79
2017-07-20T04:52:30.356Z,1012.77
2017-07-20T04:53:32.235Z,1012.75
2017-07-20T04:54:46.377Z,1012.73
2017-07-20T04:55:48.252Z,1012.69
2017-07-20T04:56:50.127Z,1012.60
2017-07-20T04:57:52.023Z,1012.50
2017-07-20T04:58:53.835Z,1012.48
2017-07-20T04:59:55.646Z,1012.49
2017-07-20T05:00:57.548Z,1012.53
2017-07-20T05:01:59.445Z,1012.56
2017-07-20T05:03:01.320Z,1012.56
2017-07-20T05:04:15.468Z,1012.56
2017-07-20T05:05:17.362Z,1012.53
2017-07-20T05:06:19.242Z,1012.44
2017-07-20T05:07:21.113Z,1012.45
2017-07-20T05:08:22.945Z,1012.42
2017-07-20T05:09:24.762Z,1012.33
2017-07-20T05:10:26.662Z,1012.29
2017-07-20T05:11:28.558Z,1012.17
2017-07-20T05:12:30.454Z,1012.21
2017-07-20T05:13:44.603Z,1012.26
2017-07-20T05:14:46.474Z,1012.22
2017-07-20T05:15:48.346Z,1012.17
2017-07-20T05:16:50.222Z,1012.09
2017-07-20T05:17:52.051Z,1012.01
2017-07-20T05:18:53.868Z,1012.01
2017-07-20T05:19:55.771Z,1012.01
2017-07-20T05:20:57.668Z,1012.00
2017-07-20T05:21:59.580Z,1012.03
2017-07-20T05:23:13.743Z,1012.02
2017-07-20T05:24:15.619Z,1012.08
2017-07-20T05:25:17.500Z,1012.13
2017-07-20T05:26:19.378Z,1012.20
2017-07-20T05:27:21.192Z,1012.20
2017-07-20T05:28:23.031Z,1012.23
2017-07-20T05:29:24.934Z,1012.25
2017-07-20T05:30:26.833Z,1012.25
2017-07-20T05:31:28.743Z,1012.25
2017-07-20T05:32:42.879Z,1012.31
2017-07-20T05:33:44.755Z,1012.29
2017-07-20T05:34:46.649Z,1012.32
2017-07-20T05:35:48.522Z,1012.34
2017-07-20T05:36:50.341Z,1012.40
2017-07-20T05:37:52.174Z,1012.42
2017-07-20T05:38:54.053Z,1012.43
2017-07-20T05:39:55.947Z,1012.47
2017-07-20T05:40:57.827Z,1012.45
2017-07-20T05:42:12.014Z,1012.46
2017-07-20T05:43:13.887Z,1012.46
2017-07-20T05:44:15.788Z,1012.46
2017-07-20T05:45:17.691Z,1012.51
2017-07-20T05:46:19.521Z,1012.52
2017-07-20T05:47:21.337Z,1012.59
2017-07-20T05:48:23.217Z,1012.70
2017-07-20T05:49:25.094Z,1012.71
2017-07-20T05:50:26.995Z,1012.77
2017-07-20T05:51:41.147Z,1012.78
2017-07-20T05:52:43.051Z,1012.77
2017-07-20T05:53:44.944Z,1012.80
2017-07-20T05:54:46.822Z,1012.84
2017-07-20T05:55:48.633Z,1012.83
2017-07-20T05:56:50.447Z,1012.85
2017-07-20T05:57:52.326Z,1012.85
2017-07-20T05:58:54.227Z,1012.93
2017-07-20T05:59:56.101Z,1012.89
2017-07-20T06:01:10.252Z,1012.89
2017-07-20T06:02:12.125Z,1012.91
2017-07-20T06:03:13.996Z,1012.92
2017-07-20T06:04:15.870Z,1012.93
2017-07-20T06:05:17.689Z,1012.86
2017-07-20T06:06:19.523Z,1012.83
2017-07-20T06:07:21.427Z,1012.80
2017-07-20T06:08:23.326Z,1012.83
2017-07-20T06:09:25.200Z,1012.86
2017-07-20T06:10:39.355Z,1012.90
2017-07-20T06:11:41.247Z,1012.91
2017-07-20T06:12:43.128Z,1012.94
2017-07-20T06:13:45.026Z,1012.95
2017-07-20T06:14:46.863Z,1012.95
2017-07-20T06:15:48.675Z,1012.99
2017-07-20T06:16:50.546Z,1013.02
2017-07-20T06:17:52.421Z,1013.02
2017-07-20T06:18:54.299Z,1013.02
2017-07-20T06:20:08.498Z,1013.02
2017-07-20T06:21:10.398Z,1013.02
2017-07-20T06:22:12.279Z,1012.97
2017-07-20T06:23:14.182Z,1012.95
2017-07-20T06:24:16.017Z,1012.98
2017-07-20T06:25:17.857Z,1012.98
2017-07-20T06:26:19.752Z,1013.03
2017-07-20T06:27:21.634Z,1013.09
2017-07-20T06:28:23.531Z,1013.13
2017-07-20T06:29:37.704Z,1013.09
2017-07-20T06:30:39.580Z,1013.09
2017-07-20T06:31:41.459Z,1013.10
2017-07-20T06:32:43.361Z,1013.14
2017-07-20T06:33:45.198Z,1013.13
2017-07-20T06:34:47.010Z,1013.07
2017-07-20T06:35:48.892Z,1013.08
2017-07-20T06:36:50.794Z,1013.08
2017-07-20T06:37:52.701Z,1013.06
2017-07-20T06:39:07.028Z,1013.06
2017-07-20T06:40:08.930Z,1013.07
2017-07-20T06:41:10.805Z,1013.10
2017-07-20T06:42:12.678Z,1013.07
2017-07-20T06:43:14.497Z,1013.11
2017-07-20T06:44:16.309Z,1013.09
2017-07-20T06:45:18.192Z,1013.08
2017-07-20T06:46:20.071Z,1013.14
2017-07-20T06:47:21.978Z,1013.19
2017-07-20T06:48:36.158Z,1013.27
2017-07-20T06:49:38.056Z,1013.31
2017-07-20T06:50:39.935Z,1013.41
2017-07-20T06:51:41.819Z,1013.41
2017-07-20T06:52:43.652Z,1013.42
2017-07-20T06:53:45.466Z,1013.39
2017-07-20T06:54:47.346Z,1013.37
2017-07-20T06:55:49.230Z,1013.39
2017-07-20T06:56:51.123Z,1013.41
2017-07-20T06:58:05.276Z,1013.39
2017-07-20T06:59:07.159Z,1013.43
2017-07-20T07:00:09.059Z,1013.46
2017-07-20T07:01:10.964Z,1013.45
2017-07-20T07:02:12.812Z,1013.49
2017-07-20T07:03:14.613Z,1013.48
2017-07-20T07:04:16.506Z,1013.50
2017-07-20T07:05:18.373Z,1013.54
2017-07-20T07:06:20.248Z,1013.61
2017-07-20T07:07:34.405Z,1013.66
2017-07-20T07:08:36.278Z,1013.67
2017-07-20T07:09:38.158Z,1013.72
2017-07-20T07:10:40.033Z,1013.78
2017-07-20T07:11:41.849Z,1013.83
2017-07-20T07:12:43.666Z,1013.92
2017-07-20T07:13:45.544Z,1013.97
2017-07-20T07:14:47.423Z,1013.94
2017-07-20T07:15:49.330Z,1013.99
2017-07-20T07:17:03.514Z,1014.04
2017-07-20T07:18:05.413Z,1014.01
2017-07-20T07:19:07.316Z,1013.97
2017-07-20T07:20:09.219Z,1013.96
2017-07-20T07:21:11.059Z,1013.93
2017-07-20T07:22:13.101Z,1013.92
2017-07-20T07:23:14.986Z,1013.92
2017-07-20T07:24:16.864Z,1013.93
2017-07-20T07:25:18.772Z,1013.91
2017-07-20T07:26:32.948Z,1013.98
2017-07-20T07:27:34.826Z,1014.00
2017-07-20T07:28:36.703Z,1013.97
2017-07-20T07:29:38.611Z,1014.02
2017-07-20T07:30:40.445Z,1014.00
2017-07-20T07:31:42.282Z,1013.99
2017-07-20T07:32:44.164Z,1013.99
2017-07-20T07:33:46.065Z,1014.01
2017-07-20T07:34:47.969Z,1014.03
2017-07-20T07:36:02.142Z,1014.02
2017-07-20T07:37:04.026Z,1014.02
2017-07-20T07:38:05.924Z,1013.98
2017-07-20T07:39:07.818Z,1013.97
2017-07-20T07:40:09.619Z,1013.93
2017-07-20T07:41:11.458Z,1013.90
2017-07-20T07:42:13.332Z,1013.90
2017-07-20T07:43:15.209Z,1013.88
2017-07-20T07:44:17.110Z,1013.90
2017-07-20T07:45:31.265Z,1013.88
2017-07-20T07:46:33.172Z,1013.87
2017-07-20T07:47:35.076Z,1013.82
2017-07-20T07:48:36.971Z,1013.79
2017-07-20T07:49:38.791Z,1013.77
2017-07-20T07:50:40.601Z,1013.77
2017-07-20T07:51:42.476Z,1013.76
2017-07-20T07:52:44.353Z,1013.80
2017-07-20T07:53:46.234Z,1013.78
2017-07-20T07:55:00.408Z,1013.80
2017-07-20T07:56:02.284Z,1013.74
2017-07-20T07:57:04.163Z,1013.73
2017-07-20T07:58:06.066Z,1013.77
2017-07-20T07:59:07.906Z,1013.80
2017-07-20T08:00:09.742Z,1013.81
2017-07-20T08:01:11.621Z,1013.81
2017-07-20T08:02:13.497Z,1013.77
2017-07-20T08:03:15.376Z,1013.80
2017-07-20T08:04:29.523Z,1013.79
2017-07-20T08:05:31.402Z,1013.78
2017-07-20T08:06:33.279Z,1013.78
2017-07-20T08:07:35.153Z,1013.81
2017-07-20T08:08:36.969Z,1013.82
2017-07-20T08:09:38.783Z,1013.82
2017-07-20T08:10:40.680Z,1013.80
2017-07-20T08:11:42.554Z,1013.82
2017-07-20T08:12:44.433Z,1013.85
2017-07-20T08:13:58.591Z,1013.88
2017-07-20T08:15:00.464Z,1013.83
2017-07-20T08:16:02.345Z,1013.86
2017-07-20T08:17:04.221Z,1013.81
2017-07-20T08:18:06.033Z,1013.79
2017-07-20T08:19:07.856Z,1013.78
2017-07-20T08:20:09.754Z,1013.75
2017-07-20T08:21:11.657Z,1013.76
2017-07-20T08:22:13.555Z,1013.76
2017-07-20T08:23:27.710Z,1013.74
2017-07-20T08:24:29.612Z,1013.74
2017-07-20T08:25:31.485Z,1013.70
2017-07-20T08:26:33.363Z,1013.68
2017-07-20T08:27:35.204Z,1013.70
2017-07-20T08:28:37.042Z,1013.65
2017-07-20T08:29:38.919Z,1013.68
2017-07-20T08:30:40.818Z,1013.68
2017-07-20T08:31:42.694Z,1013.62
2017-07-20T08:32:56.847Z,1013.59
2017-07-20T08:33:58.725Z,1013.54
2017-07-20T08:35:00.595Z,1013.58
2017-07-20T08:36:02.468Z,1013.54
2017-07-20T08:37:04.282Z,1013.53
2017-07-20T08:38:06.101Z,1013.53
2017-07-20T08:39:08.002Z,1013.47
2017-07-20T08:40:09.904Z,1013.48
2017-07-20T08:41:11.780Z,1013.45
2017-07-20T08:42:25.959Z,1013.40
2017-07-20T08:43:27.856Z,1013.45
2017-07-20T08:44:29.743Z,1013.44
2017-07-20T08:45:31.617Z,1013.44
2017-07-20T08:46:33.459Z,1013.40
2017-07-20T08:47:35.298Z,1013.44
2017-07-20T08:48:37.175Z,1013.40
2017-07-20T08:49:39.056Z,1013.36
2017-07-20T08:50:40.958Z,1013.38
2017-07-20T08:51:55.102Z,1013.36
2017-07-20T08:52:57.014Z,1013.40
2017-07-20T08:53:58.898Z,1013.42
2017-07-20T08:55:00.791Z,1013.42
2017-07-20T08:56:02.607Z,1013.40
2017-07-20T08:57:04.428Z,1013.40
2017-07-20T08:58:06.305Z,1013.39
2017-07-20T08:59:08.210Z,1013.42
2017-07-20T09:00:10.116Z,1013.46
2017-07-20T09:01:24.276Z,1013.46
2017-07-20T09:02:26.136Z,1013.41
2017-07-20T09:03:28.018Z,1013.45
2017-07-20T09:04:29.923Z,1013.45
2017-07-20T09:05:31.796Z,1013.42
2017-07-20T09:06:33.637Z,1013.44
2017-07-20T09:07:35.479Z,1013.39
2017-07-20T09:08:37.355Z,1013.43
2017-07-20T09:09:39.261Z,1013.42
2017-07-20T09:10:53.472Z,1013.43
2017-07-20T09:11:55.357Z,1013.42
2017-07-20T09:12:57.259Z,1013.42
2017-07-20T09:13:59.156Z,1013.39
2017-07-20T09:15:00.966Z,1013.43
2017-07-20T09:16:02.786Z,1013.44
2017-07-20T09:17:04.661Z,1013.45
2017-07-20T09:18:06.536Z,1013.46
2017-07-20T09:19:08.412Z,1013.43
2017-07-20T09:20:22.562Z,1013.45
2017-07-20T09:21:24.443Z,1013.49
2017-07-20T09:22:26.317Z,1013.52
2017-07-20T09:23:28.199Z,1013.47
2017-07-20T09:24:30.033Z,1013.48
2017-07-20T09:25:31.853Z,1013.47
2017-07-20T09:26:33.759Z,1013.39
2017-07-20T09:27:35.655Z,1013.48
2017-07-20T09:28:37.537Z,1013.41
2017-07-20T09:29:51.711Z,1013.38
2017-07-20T09:30:53.588Z,1013.37
2017-07-20T09:31:55.461Z,1013.38
2017-07-20T09:32:57.344Z,1013.38
2017-07-20T09:33:59.184Z,1013.42
2017-07-20T09:35:01.023Z,1013.38
2017-07-20T09:36:02.897Z,1013.38
2017-07-20T09:37:04.779Z,1013.35
2017-07-20T09:38:06.688Z,1013.33
2017-07-20T09:39:20.869Z,1013.32
2017-07-20T09:40:22.765Z,1013.33
2017-07-20T09:41:24.643Z,1013.32
2017-07-20T09:42:26.522Z,1013.27
2017-07-20T09:43:28.335Z,1013.26
2017-07-20T09:44:30.169Z,1013.28
2017-07-20T09:45:32.053Z,1013.34
2017-07-20T09:46:33.927Z,1013.31
2017-07-20T09:47:35.829Z,1013.28
2017-07-20T09:48:49.976Z,1013.27
2017-07-20T09:49:51.859Z,1013.24
2017-07-20T09:50:53.757Z,1013.26
2017-07-20T09:51:55.640Z,1013.24
2017-07-20T09:52:57.446Z,1013.21
2017-07-20T09:53:59.263Z,1013.20
2017-07-20T09:55:01.081Z,1013.17
2017-07-20T09:56:02.895Z,1013.20
2017-07-20T09:57:04.738Z,1013.23
2017-07-20T09:58:18.920Z,1013.10
2017-07-20T09:59:20.818Z,1013.12
2017-07-20T10:00:22.701Z,1013.12
2017-07-20T10:01:24.590Z,1013.11
2017-07-20T10:02:26.412Z,1013.15
2017-07-20T10:03:28.251Z,1013.12
2017-07-20T10:04:30.151Z,1013.06
2017-07-20T10:05:32.033Z,1013.08
2017-07-20T10:06:33.914Z,1013.07
2017-07-20T10:07:48.062Z,1013.04
2017-07-20T10:08:49.905Z,1013.00
2017-07-20T10:09:51.742Z,1013.03
2017-07-20T10:10:53.616Z,1013.03
2017-07-20T10:11:55.519Z,1012.98
2017-07-20T10:12:57.395Z,1012.98
2017-07-20T10:13:59.234Z,1013.01
2017-07-20T10:15:01.056Z,1013.02
2017-07-20T10:16:02.957Z,1013.00
2017-07-20T10:17:17.194Z,1013.01
2017-07-20T10:18:19.095Z,1013.00
2017-07-20T10:19:20.976Z,1012.99
2017-07-20T10:20:22.875Z,1012.94
2017-07-20T10:21:24.684Z,1012.96
2017-07-20T10:22:26.501Z,1012.94
2017-07-20T10:23:28.383Z,1012.86
2017-07-20T10:24:30.285Z,1012.88
2017-07-20T10:25:32.163Z,1012.92
2017-07-20T10:26:46.310Z,1012.89
2017-07-20T10:27:48.193Z,1012.86
2017-07-20T10:28:50.062Z,1012.91
2017-07-20T10:29:51.935Z,1012.87
2017-07-20T10:30:53.777Z,1012.84
2017-07-20T10:31:55.619Z,1012.89
2017-07-20T10:32:57.521Z,1012.79
2017-07-20T10:33:59.415Z,1012.83
2017-07-20T10:35:01.315Z,1012.79
2017-07-20T10:36:15.464Z,1012.79
2017-07-20T10:37:17.344Z,1012.76
2017-07-20T10:38:19.224Z,1012.76
2017-07-20T10:39:21.110Z,1012.78
2017-07-20T10:40:22.919Z,1012.77
2017-07-20T10:41:24.735Z,1012.74
2017-07-20T10:42:26.634Z,1012.73
2017-07-20T10:43:28.512Z,1012.72
2017-07-20T10:44:30.394Z,1012.77
2017-07-20T10:45:44.567Z,1012.80
2017-07-20T10:46:46.449Z,1012.77
2017-07-20T10:47:48.351Z,1012.75
2017-07-20T10:48:50.251Z,1012.78
2017-07-20T10:49:52.069Z,1012.80
2017-07-20T10:50:53.884Z,1012.76
2017-07-20T10:51:55.753Z,1012.83
2017-07-20T10:52:57.632Z,1012.74
2017-07-20T10:53:59.535Z,1012.74
2017-07-20T10:55:13.688Z,1012.73
2017-07-20T10:56:15.588Z,1012.71
2017-07-20T10:57:17.466Z,1012.76
2017-07-20T10:58:19.342Z,1012.75
2017-07-20T10:59:21.164Z,1012.75
2017-07-20T11:00:23.002Z,1012.71
2017-07-20T11:01:24.874Z,1012.73
2017-07-20T11:02:26.755Z,1012.67
2017-07-20T11:03:28.622Z,1012.63
2017-07-20T11:04:42.799Z,1012.67
2017-07-20T11:05:44.668Z,1012.66
2017-07-20T11:06:46.547Z,1012.62
2017-07-20T11:07:48.443Z,1012.62
2017-07-20T11:08:50.263Z,1012.60
2017-07-20T11:09:52.098Z,1012.60
2017-07-20T11:10:53.975Z,1012.65
2017-07-20T11:11:55.859Z,1012.60
2017-07-20T11:12:57.758Z,1012.58
2017-07-20T11:14:11.910Z,1012.61
2017-07-20T11:15:13.788Z,1012.62
2017-07-20T11:16:15.693Z,1012.65
2017-07-20T11:17:17.587Z,1012.61
2017-07-20T11:18:19.416Z,1012.64
2017-07-20T11:19:21.247Z,1012.64
2017-07-20T11:20:23.069Z,1012.61
2017-07-20T11:21:24.879Z,1012.64
2017-07-20T11:22:26.698Z,1012.63
2017-07-20T11:23:40.875Z,1012.63
2017-07-20T11:24:42.753Z,1012.58
2017-07-20T11:25:44.650Z,1012.56
2017-07-20T11:26:46.554Z,1012.53
2017-07-20T11:27:48.392Z,1012.54
2017-07-20T11:28:50.231Z,1012.53
2017-07-20T11:29:52.134Z,1012.55
2017-07-20T11:30:54.032Z,1012.56
2017-07-20T11:31:55.911Z,1012.53
2017-07-20T11:33:10.062Z,1012.55
2017-07-20T11:34:11.945Z,1012.57
2017-07-20T11:35:13.815Z,1012.58
2017-07-20T11:36:15.699Z,1012.62
2017-07-20T11:37:17.533Z,1012.59
2017-07-20T11:38:19.373Z,1012.62
2017-07-20T11:39:21.253Z,1012.61
2017-07-20T11:40:23.140Z,1012.62
2017-07-20T11:41:25.042Z,1012.59
2017-07-20T11:42:39.197Z,1012.62
2017-07-20T11:43:41.101Z,1012.65
2017-07-20T11:44:42.986Z,1012.62
2017-07-20T11:45:44.880Z,1012.59
2017-07-20T11:46:46.699Z,1012.63
2017-07-20T11:47:48.519Z,1012.71
2017-07-20T11:48:50.394Z,1012.68
2017-07-20T11:49:52.271Z,1012.71
2017-07-20T11:50:54.179Z,1012.71
2017-07-20T11:52:08.353Z,1012.78
2017-07-20T11:53:10.255Z,1012.71
2017-07-20T11:54:12.138Z,1012.70
2017-07-20T11:55:14.012Z,1012.70
2017-07-20T11:56:15.830Z,1012.71
2017-07-20T11:57:17.644Z,1012.72
2017-07-20T11:58:19.521Z,1012.76
2017-07-20T11:59:21.405Z,1012.80
2017-07-20T12:00:23.285Z,1012.82
2017-07-20T12:01:37.442Z,1012.85
2017-07-20T12:02:39.321Z,1012.88
2017-07-20T12:03:41.197Z,1012.88
2017-07-20T12:04:43.077Z,1012.88
2017-07-20T12:05:44.891Z,1012.87
2017-07-20T12:06:46.709Z,1012.89
2017-07-20T12:07:48.611Z,1012.87
2017-07-20T12:08:50.494Z,1012.90
2017-07-20T12:09:52.379Z,1012.89
2017-07-20T12:11:06.558Z,1012.90
2017-07-20T12:12:08.433Z,1012.92
2017-07-20T12:13:10.310Z,1012.93
2017-07-20T12:14:12.192Z,1012.98
2017-07-20T12:15:14.033Z,1012.92
2017-07-20T12:16:15.848Z,1012.88
2017-07-20T12:17:17.732Z,1012.93
2017-07-20T12:18:19.610Z,1012.91
2017-07-20T12:19:21.497Z,1012.86
2017-07-20T12:20:35.672Z,1012.72
2017-07-20T12:21:37.553Z,1012.68
2017-07-20T12:22:39.431Z,1012.60
2017-07-20T12:23:41.308Z,1012.61
2017-07-20T12:24:43.128Z,1012.57
2017-07-20T12:25:44.952Z,1012.60
2017-07-20T12:26:46.856Z,1012.63
2017-07-20T12:27:48.758Z,1012.62
2017-07-20T12:28:50.642Z,1012.65
2017-07-20T12:30:04.828Z,1012.65
2017-07-20T12:31:06.732Z,1012.66
2017-07-20T12:32:08.613Z,1012.69
2017-07-20T12:33:10.519Z,1012.74
2017-07-20T12:34:12.362Z,1012.68
2017-07-20T12:35:14.206Z,1012.71
2017-07-20T12:36:16.086Z,1012.68
2017-07-20T12:37:17.994Z,1012.78
2017-07-20T12:38:19.874Z,1012.77
2017-07-20T12:39:34.030Z,1012.76
2017-07-20T12:40:35.934Z,1012.74
2017-07-20T12:41:37.821Z,1012.76
2017-07-20T12:42:39.725Z,1012.75
2017-07-20T12:43:41.568Z,1012.68
2017-07-20T12:44:43.405Z,1012.61